Lockport, Illinois
Current Conditions -  °F | °C
As of 2:55 AM on Monday 24 Nov 2014 (Local Time) from KLOT Reporting Station
Drizzle Drizzle  
Wind Chill: 44°   Ceiling: 200
Heat Index: 48°   Visibility: 3mi
Dew Point: 48°   Wind: 9mph
Humidity: 100%   Direction: 240°WSW
Pressure: 29.1"   Gusts: 18mph
Location:  41.59°N, 88.05°W
Report Text: KLOT 240855Z AUTO 24008G16KT 3SM +DZ OVC002 09/09 A2910 RMK AO2 T00880088
Loading
Personal Weather Stations






























Interactive Weather Map New forecast layout! Learn more

10-Day Weather Forecast

Advertisements
Track Severe Weather on mobile